createdAt,value
2018-04-25T00:02:16.386Z,84.57
2018-04-25T00:04:44.637Z,85.75
2018-04-25T00:07:12.891Z,85.04
2018-04-25T00:09:41.904Z,85.07
2018-04-25T00:12:10.155Z,85.13
2018-04-25T00:14:38.395Z,85.29
2018-04-25T00:17:06.648Z,85.32
2018-04-25T00:19:34.891Z,85.53
2018-04-25T00:22:03.143Z,85.50
2018-04-25T00:24:31.493Z,85.30
2018-04-25T00:26:59.652Z,86.08
2018-04-25T00:29:28.675Z,84.80
2018-04-25T00:31:56.923Z,85.69
2018-04-25T00:34:25.935Z,86.04
2018-04-25T00:36:54.186Z,86.29
2018-04-25T00:39:22.444Z,85.46
2018-04-25T00:41:50.694Z,86.41
2018-04-25T00:44:18.950Z,86.40
2018-04-25T00:46:47.965Z,84.77
2018-04-25T00:49:16.219Z,84.63
2018-04-25T00:51:45.156Z,85.75
2018-04-25T00:54:13.427Z,86.55
2018-04-25T00:56:41.655Z,86.66
2018-04-25T00:59:09.904Z,86.13
2018-04-25T01:01:38.165Z,86.36
2018-04-25T01:04:06.416Z,86.47
2018-04-25T01:06:35.426Z,86.51
2018-04-25T01:09:04.443Z,86.62
2018-04-25T01:11:32.692Z,86.92
2018-04-25T01:14:01.719Z,86.97
2018-04-25T01:16:29.969Z,86.05
2018-04-25T01:18:58.215Z,87.05
2018-04-25T01:21:26.457Z,86.78
2018-04-25T01:23:54.710Z,86.76
2018-04-25T01:26:23.715Z,87.01
2018-04-25T01:28:53.431Z,87.36
2018-04-25T01:31:55.978Z,86.62
2018-04-25T01:34:34.250Z,86.97
2018-04-25T01:37:09.964Z,85.94
2018-04-25T01:39:41.636Z,86.43
2018-04-25T01:42:21.642Z,87.07
2018-04-25T01:47:48.815Z,87.20
2018-04-25T01:53:34.775Z,87.12
2018-04-25T01:56:20.743Z,86.67
2018-04-25T01:59:06.429Z,87.84
2018-04-25T02:01:33.882Z,87.37
2018-04-25T02:04:02.363Z,86.70
2018-04-25T02:06:30.618Z,86.67
2018-04-25T02:08:58.859Z,87.93
2018-04-25T02:11:27.899Z,86.75
2018-04-25T02:13:56.139Z,86.91
2018-04-25T02:16:25.165Z,86.95
2018-04-25T02:18:53.411Z,86.56
2018-04-25T02:21:21.666Z,86.48
2018-04-25T02:23:49.908Z,87.22
2018-04-25T02:26:18.184Z,86.54
2018-04-25T02:28:46.438Z,86.55
2018-04-25T02:31:15.927Z,87.85
2018-04-25T02:33:44.171Z,88.66
2018-04-25T02:36:12.428Z,87.69
2018-04-25T02:38:40.692Z,89.01
2018-04-25T02:41:09.588Z,88.82
2018-04-25T02:43:38.601Z,89.34
2018-04-25T02:46:06.851Z,88.41
2018-04-25T02:48:35.103Z,89.38
2018-04-25T02:51:03.354Z,89.06
2018-04-25T02:53:31.601Z,88.41
2018-04-25T02:56:00.629Z,85.40
2018-04-25T02:58:28.874Z,85.94
2018-04-25T03:00:57.125Z,86.08
2018-04-25T03:03:25.375Z,88.47
2018-04-25T03:05:53.636Z,88.73
2018-04-25T03:08:22.648Z,89.24
2018-04-25T03:10:50.894Z,88.40
2018-04-25T03:13:19.910Z,87.84
2018-04-25T03:15:48.178Z,88.77
2018-04-25T03:18:17.203Z,89.32
2018-04-25T03:20:45.458Z,87.21
2018-04-25T03:23:14.286Z,86.94
2018-04-25T03:25:42.634Z,88.18
2018-04-25T03:28:11.639Z,88.67
2018-04-25T03:30:40.649Z,88.35
2018-04-25T03:33:08.904Z,87.62
2018-04-25T03:35:37.922Z,88.00
2018-04-25T03:38:06.171Z,88.43
2018-04-25T03:40:34.423Z,88.66
2018-04-25T03:43:02.669Z,88.72
2018-04-25T03:45:30.927Z,88.86
2018-04-25T03:47:59.935Z,88.77
2018-04-25T03:50:28.200Z,86.61
2018-04-25T03:52:57.222Z,88.09
2018-04-25T03:55:25.468Z,87.95
2018-04-25T03:57:53.741Z,87.86
2018-04-25T04:00:21.986Z,87.97
2018-04-25T04:02:50.227Z,87.81
2018-04-25T04:05:18.681Z,87.27
2018-04-25T04:07:46.945Z,86.42
2018-04-25T04:10:15.192Z,88.64
2018-04-25T04:12:43.444Z,89.84
2018-04-25T04:15:12.454Z,89.80
2018-04-25T04:17:40.711Z,88.81
2018-04-25T04:20:08.956Z,87.91
2018-04-25T04:22:37.210Z,87.37
2018-04-25T04:25:05.455Z,87.90
2018-04-25T04:27:34.480Z,87.96
2018-04-25T04:30:02.723Z,87.13
2018-04-25T04:32:30.979Z,87.72
2018-04-25T04:34:59.222Z,87.26
2018-04-25T04:37:27.479Z,86.80
2018-04-25T04:39:56.495Z,86.14
2018-04-25T04:42:25.513Z,84.92
2018-04-25T04:44:53.947Z,85.00
2018-04-25T04:47:22.199Z,84.83
2018-04-25T04:49:50.448Z,84.76
2018-04-25T04:52:18.710Z,83.75
2018-04-25T04:54:47.707Z,83.89
2018-04-25T04:57:16.735Z,82.95
2018-04-25T04:59:45.048Z,82.12
2018-04-25T05:02:14.008Z,81.50
2018-04-25T05:04:42.251Z,81.42
2018-04-25T05:07:11.283Z,80.81
2018-04-25T05:09:39.525Z,81.65
2018-04-25T05:12:07.779Z,80.66
2018-04-25T05:14:36.027Z,82.10
2018-04-25T05:17:04.284Z,82.91
2018-04-25T05:19:34.545Z,81.84
2018-04-25T05:22:02.812Z,70.36
2018-04-25T05:24:31.148Z,59.65
2018-04-25T05:27:00.100Z,58.69
2018-04-25T05:29:28.363Z,49.13
2018-04-25T05:31:56.657Z,42.67
2018-04-25T05:34:25.663Z,37.36
2018-04-25T05:36:53.908Z,36.86
2018-04-25T05:39:22.168Z,32.53
2018-04-25T05:41:50.423Z,30.91
2018-04-25T05:44:18.674Z,30.23
2018-04-25T05:46:46.947Z,29.99
2018-04-25T05:49:15.203Z,32.55
2018-04-25T05:51:44.275Z,35.38
2018-04-25T05:54:12.483Z,33.24
2018-04-25T05:56:41.507Z,35.47
2018-04-25T05:59:09.776Z,42.47
2018-04-25T06:01:38.036Z,37.01
2018-04-25T06:04:07.059Z,39.44
2018-04-25T06:06:35.309Z,34.38
2018-04-25T06:09:04.344Z,29.95
2018-04-25T06:11:32.599Z,32.78
2018-04-25T06:14:01.629Z,33.15
2018-04-25T06:16:29.883Z,33.67
2018-04-25T06:18:58.908Z,30.56
2018-04-25T06:21:27.327Z,28.78
2018-04-25T06:23:55.567Z,29.06
2018-04-25T06:26:23.832Z,29.60
2018-04-25T06:28:52.103Z,27.25
2018-04-25T06:31:21.127Z,29.26
2018-04-25T06:33:49.392Z,27.47
2018-04-25T06:36:17.646Z,27.18
2018-04-25T06:38:46.675Z,25.27
2018-04-25T06:41:14.924Z,26.95
2018-04-25T06:43:43.955Z,26.69
2018-04-25T06:46:12.228Z,24.94
2018-04-25T06:48:40.482Z,23.78
2018-04-25T06:51:09.500Z,23.35
2018-04-25T06:53:37.762Z,22.32
2018-04-25T06:56:06.784Z,25.29
2018-04-25T06:58:35.127Z,23.24
2018-04-25T07:01:04.100Z,25.44
2018-04-25T07:03:32.368Z,23.72
2018-04-25T07:06:00.632Z,26.56
2018-04-25T07:08:28.892Z,27.54
2018-04-25T07:10:57.151Z,26.21
2018-04-25T07:13:26.184Z,27.30
2018-04-25T07:15:54.440Z,28.40
2018-04-25T07:18:23.458Z,25.52
2018-04-25T07:20:51.706Z,29.01
2018-04-25T07:23:20.734Z,28.31
2018-04-25T07:25:49.138Z,27.12
2018-04-25T07:28:17.416Z,25.58
2018-04-25T07:30:45.690Z,23.87
2018-04-25T07:33:13.948Z,25.51
2018-04-25T07:35:43.189Z,21.06
2018-04-25T07:38:11.439Z,22.03
2018-04-25T07:40:39.723Z,20.16
2018-04-25T07:43:08.003Z,20.41
2018-04-25T07:45:36.242Z,21.44
2018-04-25T07:48:04.492Z,18.73
2018-04-25T07:50:32.761Z,16.44
2018-04-25T07:53:01.016Z,18.23
2018-04-25T07:55:30.046Z,19.01
2018-04-25T07:57:58.303Z,19.97
2018-04-25T08:00:26.570Z,22.23
2018-04-25T08:02:55.589Z,20.11
2018-04-25T08:05:23.860Z,18.79
2018-04-25T08:07:52.125Z,20.08
2018-04-25T08:10:21.158Z,23.15
2018-04-25T08:13:07.127Z,23.25
2018-04-25T08:15:52.819Z,22.38
2018-04-25T08:18:38.895Z,23.21
2018-04-25T08:21:25.036Z,21.35
2018-04-25T08:23:53.296Z,22.99
2018-04-25T08:26:21.568Z,22.92
2018-04-25T08:28:49.828Z,23.98
2018-04-25T08:31:18.101Z,24.23
2018-04-25T08:33:46.373Z,23.94
2018-04-25T08:36:14.649Z,23.94
2018-04-25T08:38:43.756Z,24.72
2018-04-25T08:41:12.028Z,26.71
2018-04-25T08:43:41.048Z,25.30
2018-04-25T08:46:09.307Z,23.12
2018-04-25T08:48:38.336Z,23.96
2018-04-25T08:51:06.589Z,24.59
2018-04-25T08:53:35.730Z,23.51
2018-04-25T08:56:04.000Z,23.63
2018-04-25T08:58:32.254Z,22.58
2018-04-25T09:01:00.522Z,21.16
2018-04-25T09:03:29.548Z,24.70
2018-04-25T09:05:57.807Z,26.09
2018-04-25T09:08:26.828Z,27.50
2018-04-25T09:10:55.101Z,26.52
2018-04-25T09:13:23.350Z,25.25
2018-04-25T09:15:52.383Z,25.03
2018-04-25T09:18:20.647Z,23.58
2018-04-25T09:20:48.908Z,20.54
2018-04-25T09:23:17.920Z,19.13
2018-04-25T09:25:47.225Z,19.36
2018-04-25T09:28:15.479Z,22.83
2018-04-25T09:30:43.747Z,23.97
2018-04-25T09:33:12.009Z,22.78
2018-04-25T09:35:40.281Z,22.03
2018-04-25T09:38:08.540Z,23.26
2018-04-25T09:40:36.812Z,22.09
2018-04-25T09:43:05.073Z,23.05
2018-04-25T09:45:34.095Z,21.72
2018-04-25T09:48:02.358Z,20.98
2018-04-25T09:50:31.388Z,20.20
2018-04-25T09:52:59.648Z,20.13
2018-04-25T09:55:27.911Z,20.25
2018-04-25T09:57:56.957Z,20.93
2018-04-25T10:00:30.456Z,20.15
2018-04-25T10:02:58.980Z,21.13
2018-04-25T10:05:27.235Z,23.79
2018-04-25T10:07:55.496Z,21.95
2018-04-25T10:10:23.771Z,21.78
2018-04-25T10:12:52.030Z,21.16
2018-04-25T10:15:21.055Z,25.34
2018-04-25T10:17:49.311Z,27.99
2018-04-25T10:20:17.565Z,27.48
2018-04-25T10:22:45.848Z,22.82
2018-04-25T10:25:14.116Z,20.38
2018-04-25T10:27:42.371Z,21.85
2018-04-25T10:30:10.624Z,19.80
2018-04-25T10:32:38.887Z,20.01
2018-04-25T10:35:07.912Z,18.60
2018-04-25T10:37:36.188Z,18.53
2018-04-25T10:40:04.443Z,20.19
2018-04-25T10:42:33.466Z,20.29
2018-04-25T10:45:01.720Z,17.24
2018-04-25T10:47:30.758Z,20.66
2018-04-25T10:49:59.850Z,20.65
2018-04-25T10:52:28.111Z,21.35
2018-04-25T10:54:56.364Z,21.47
2018-04-25T10:57:24.646Z,21.68
2018-04-25T10:59:52.893Z,21.30
2018-04-25T11:02:21.169Z,18.56
2018-04-25T11:04:49.411Z,20.21
2018-04-25T11:07:17.706Z,18.35
2018-04-25T11:09:46.726Z,17.50
2018-04-25T11:12:15.007Z,21.00
2018-04-25T11:14:43.263Z,20.01
2018-04-25T11:17:11.525Z,22.05
2018-04-25T11:19:39.771Z,22.95
2018-04-25T11:22:08.056Z,19.03
2018-04-25T11:24:36.308Z,19.04
2018-04-25T11:27:04.600Z,21.25
2018-04-25T11:29:32.857Z,21.23
2018-04-25T11:32:01.213Z,21.22
2018-04-25T11:34:29.379Z,22.41
2018-04-25T11:36:58.403Z,22.48
2018-04-25T11:39:26.666Z,21.28
2018-04-25T11:41:54.942Z,20.04
2018-04-25T11:44:23.959Z,20.43
2018-04-25T11:46:52.226Z,21.66
2018-04-25T11:49:21.239Z,20.04
2018-04-25T11:51:49.500Z,20.38
2018-04-25T11:54:18.515Z,21.05
2018-04-25T11:56:46.768Z,20.41
2018-04-25T11:59:15.796Z,22.52
2018-04-25T12:01:44.043Z,20.95
2018-04-25T12:04:13.079Z,19.28
2018-04-25T12:06:41.336Z,20.41
2018-04-25T12:09:10.459Z,21.34
2018-04-25T12:11:38.710Z,22.14
2018-04-25T12:14:07.448Z,22.12
2018-04-25T12:16:35.711Z,24.99
2018-04-25T12:19:03.977Z,23.96
2018-04-25T12:21:32.222Z,23.92
2018-04-25T12:24:00.496Z,21.59
2018-04-25T12:26:28.748Z,23.96
2018-04-25T12:28:57.019Z,24.69
2018-04-25T12:31:25.282Z,23.66
2018-04-25T12:33:53.551Z,21.34
2018-04-25T12:36:21.818Z,23.88
2018-04-25T12:38:50.853Z,25.19
2018-04-25T12:41:19.116Z,23.76
2018-04-25T12:43:47.376Z,24.91
2018-04-25T12:46:16.404Z,24.69
2018-04-25T12:48:44.680Z,25.08
2018-04-25T12:51:12.940Z,26.35
2018-04-25T12:53:41.970Z,25.85
2018-04-25T12:56:10.233Z,28.14
2018-04-25T12:58:38.500Z,28.56
2018-04-25T13:01:07.528Z,26.12
2018-04-25T13:03:35.787Z,29.56
2018-04-25T13:06:04.048Z,27.18
2018-04-25T13:08:33.079Z,29.03
2018-04-25T13:11:01.330Z,26.46
2018-04-25T13:13:30.351Z,25.79
2018-04-25T13:15:58.594Z,27.02
2018-04-25T13:18:26.877Z,24.45
2018-04-25T13:20:55.159Z,26.50
2018-04-25T13:23:23.430Z,24.69
2018-04-25T13:25:52.272Z,25.91
2018-04-25T13:28:20.544Z,25.77
2018-04-25T13:30:48.803Z,24.93
2018-04-25T13:33:17.831Z,26.76
2018-04-25T13:35:46.093Z,25.46
2018-04-25T13:38:15.127Z,27.32
2018-04-25T13:40:43.366Z,26.10
2018-04-25T13:43:13.711Z,27.26
2018-04-25T13:45:41.891Z,26.15
2018-04-25T13:48:10.159Z,25.38
2018-04-25T13:50:39.188Z,27.77
2018-04-25T13:53:07.450Z,28.38
2018-04-25T13:55:35.708Z,26.89
2018-04-25T13:58:05.678Z,25.92
2018-04-25T14:00:33.930Z,27.84
2018-04-25T14:03:02.199Z,28.95
2018-04-25T14:05:31.237Z,27.74
2018-04-25T14:07:59.479Z,29.08
2018-04-25T14:10:27.747Z,28.88
2018-04-25T14:12:56.784Z,28.94
2018-04-25T14:15:25.028Z,29.24
2018-04-25T14:17:54.043Z,29.42
2018-04-25T14:20:22.308Z,29.15
2018-04-25T14:22:51.339Z,28.35
2018-04-25T14:25:19.614Z,28.50
2018-04-25T14:27:47.870Z,30.16
2018-04-25T14:30:16.180Z,30.89
2018-04-25T14:32:45.168Z,29.91
2018-04-25T14:35:14.675Z,29.75
2018-04-25T14:37:42.930Z,29.73
2018-04-25T14:40:11.958Z,30.71
2018-04-25T14:42:40.219Z,29.64
2018-04-25T14:45:08.487Z,30.29
2018-04-25T14:47:37.509Z,30.80
2018-04-25T14:50:05.772Z,31.87
2018-04-25T14:52:34.799Z,30.03
2018-04-25T14:55:03.072Z,30.36
2018-04-25T14:57:31.319Z,32.32
2018-04-25T15:00:00.357Z,32.57
2018-04-25T15:02:30.064Z,30.88
2018-04-25T15:04:58.326Z,32.50
2018-04-25T15:07:27.346Z,32.08
2018-04-25T15:09:55.615Z,32.74
2018-04-25T15:12:23.876Z,31.33
2018-04-25T15:14:52.902Z,32.47
2018-04-25T15:17:21.163Z,33.97
2018-04-25T15:19:49.459Z,32.39
2018-04-25T15:22:18.465Z,33.06
2018-04-25T15:24:46.719Z,33.35
2018-04-25T15:27:17.016Z,34.18
2018-04-25T15:29:45.305Z,36.57
2018-04-25T15:32:13.569Z,35.63
2018-04-25T15:34:41.834Z,35.64
2018-04-25T15:37:10.104Z,35.23
2018-04-25T15:39:38.371Z,36.99
2018-04-25T15:42:06.631Z,37.58
2018-04-25T15:44:35.186Z,39.27
2018-04-25T15:47:03.436Z,38.83
2018-04-25T15:49:31.694Z,40.16
2018-04-25T15:51:59.964Z,40.60
2018-04-25T15:54:28.211Z,37.94
2018-04-25T15:56:56.479Z,36.56
2018-04-25T15:59:24.744Z,38.07
2018-04-25T16:01:53.003Z,37.95
2018-04-25T16:04:21.262Z,36.80
2018-04-25T16:06:49.539Z,39.43
2018-04-25T16:09:18.042Z,36.60
2018-04-25T16:11:46.306Z,39.53
2018-04-25T16:14:15.323Z,37.40
2018-04-25T16:16:43.591Z,35.36
2018-04-25T16:19:11.843Z,37.15
2018-04-25T16:21:40.106Z,37.33
2018-04-25T16:24:08.365Z,35.16
2018-04-25T16:26:39.481Z,36.52
2018-04-25T16:29:07.726Z,36.66
2018-04-25T16:31:35.994Z,36.49
2018-04-25T16:34:04.248Z,34.99
2018-04-25T16:36:32.515Z,36.31
2018-04-25T16:39:00.788Z,36.93
2018-04-25T16:41:29.054Z,37.57
2018-04-25T16:43:57.306Z,37.49
2018-04-25T16:46:25.574Z,36.92
2018-04-25T16:48:53.831Z,36.76
2018-04-25T16:51:22.100Z,37.72
2018-04-25T16:53:50.359Z,37.65
2018-04-25T16:56:18.620Z,37.29
2018-04-25T16:58:47.638Z,38.70
2018-04-25T17:01:15.903Z,37.90
2018-04-25T17:03:44.931Z,38.40
2018-04-25T17:06:13.212Z,39.23
2018-04-25T17:08:41.478Z,39.17
2018-04-25T17:11:09.727Z,39.84
2018-04-25T17:13:38.030Z,39.91
2018-04-25T17:16:06.292Z,39.60
2018-04-25T17:18:34.547Z,40.76
2018-04-25T17:21:02.818Z,39.79
2018-04-25T17:23:31.074Z,40.48
2018-04-25T17:25:59.336Z,40.15
2018-04-25T17:28:29.465Z,41.34
2018-04-25T17:30:57.731Z,41.06
2018-04-25T17:33:26.767Z,40.99
2018-04-25T17:35:55.035Z,41.26
2018-04-25T17:38:23.287Z,42.24
2018-04-25T17:40:52.324Z,42.30
2018-04-25T17:43:21.135Z,42.21
2018-04-25T17:45:49.422Z,42.42
2018-04-25T17:48:17.720Z,43.26
2018-04-25T17:50:45.999Z,42.29
2018-04-25T17:53:14.247Z,43.44
2018-04-25T17:55:42.527Z,46.13
2018-04-25T17:58:10.798Z,45.14
2018-04-25T18:00:39.051Z,46.01
2018-04-25T18:03:07.371Z,43.95
2018-04-25T18:05:36.349Z,45.04
2018-04-25T18:08:04.611Z,46.00
2018-04-25T18:10:32.865Z,45.03
2018-04-25T18:13:01.151Z,46.44
2018-04-25T18:15:30.171Z,47.91
2018-04-25T18:17:58.441Z,46.79
2018-04-25T18:20:28.708Z,46.48
2018-04-25T18:22:56.978Z,47.71
2018-04-25T18:25:25.223Z,46.70
2018-04-25T18:27:54.245Z,46.30
2018-04-25T18:30:22.596Z,45.43
2018-04-25T18:32:50.794Z,45.77
2018-04-25T18:35:19.055Z,46.37
2018-04-25T18:37:47.324Z,45.74
2018-04-25T18:40:15.586Z,45.50
2018-04-25T18:42:43.859Z,46.73
2018-04-25T18:45:12.116Z,47.16
2018-04-25T18:47:40.380Z,46.24
2018-04-25T18:50:08.647Z,46.50
2018-04-25T18:52:37.679Z,46.23
2018-04-25T18:55:05.940Z,45.91
2018-04-25T18:57:34.264Z,44.95
2018-04-25T19:00:03.234Z,45.08
2018-04-25T19:02:31.493Z,44.47
2018-04-25T19:04:59.762Z,45.51
2018-04-25T19:07:28.029Z,45.40
2018-04-25T19:09:56.289Z,44.93
2018-04-25T19:12:24.566Z,45.43
2018-04-25T19:14:52.815Z,45.13
2018-04-25T19:17:21.107Z,48.41
2018-04-25T19:19:49.354Z,45.73
2018-04-25T19:22:18.383Z,47.34
2018-04-25T19:24:46.640Z,48.08
2018-04-25T19:27:14.909Z,48.43
2018-04-25T19:29:43.931Z,49.48
2018-04-25T19:32:12.191Z,49.40
2018-04-25T19:34:41.214Z,50.22
2018-04-25T19:37:09.730Z,51.27
2018-04-25T19:39:37.987Z,50.65
2018-04-25T19:42:06.239Z,50.54
2018-04-25T19:44:34.515Z,50.93
2018-04-25T19:47:03.547Z,51.15
2018-04-25T19:49:31.795Z,51.55
2018-04-25T19:52:00.073Z,52.39
2018-04-25T19:54:29.096Z,49.95
2018-04-25T19:56:57.355Z,51.19
2018-04-25T19:59:26.682Z,50.96
2018-04-25T20:01:54.939Z,49.62
2018-04-25T20:04:23.219Z,48.70
2018-04-25T20:06:52.233Z,47.89
2018-04-25T20:09:20.500Z,48.42
2018-04-25T20:11:48.761Z,51.09
2018-04-25T20:14:17.026Z,50.21
2018-04-25T20:16:45.275Z,49.52
2018-04-25T20:19:13.535Z,49.58
2018-04-25T20:21:41.795Z,49.91
2018-04-25T20:24:10.821Z,52.50
2018-04-25T20:26:39.106Z,53.33
2018-04-25T20:29:07.471Z,52.25
2018-04-25T20:31:35.727Z,53.71
2018-04-25T20:34:04.816Z,55.44
2018-04-25T20:36:33.061Z,56.20
2018-04-25T20:39:01.328Z,53.23
2018-04-25T20:41:29.585Z,53.84
2018-04-25T20:43:57.852Z,56.97
2018-04-25T20:46:26.881Z,58.26
2018-04-25T20:48:55.144Z,58.47
2018-04-25T20:51:23.398Z,58.52
2018-04-25T20:53:52.434Z,59.63
2018-04-25T20:56:20.684Z,60.51
2018-04-25T20:58:49.720Z,61.04
2018-04-25T21:01:17.975Z,60.78
2018-04-25T21:03:47.015Z,60.20
2018-04-25T21:06:15.271Z,59.34
2018-04-25T21:08:43.539Z,59.23
2018-04-25T21:11:12.684Z,60.04
2018-04-25T21:13:40.915Z,60.21
2018-04-25T21:16:10.022Z,60.09
2018-04-25T21:18:38.286Z,60.75
2018-04-25T21:21:07.324Z,59.83
2018-04-25T21:23:35.589Z,60.23
2018-04-25T21:26:03.838Z,59.96
2018-04-25T21:28:32.871Z,59.51
2018-04-25T21:31:01.137Z,59.86
2018-04-25T21:33:29.411Z,58.68
2018-04-25T21:35:58.431Z,58.25
2018-04-25T21:38:26.700Z,58.50
2018-04-25T21:40:54.960Z,58.98
2018-04-25T21:43:23.992Z,59.91
2018-04-25T21:45:52.249Z,58.36
2018-04-25T21:48:22.522Z,60.84
2018-04-25T21:50:50.851Z,62.58
2018-04-25T21:53:19.059Z,62.82
2018-04-25T21:55:47.307Z,62.38
2018-04-25T21:58:16.236Z,62.17
2018-04-25T22:00:44.492Z,63.23
2018-04-25T22:03:12.754Z,63.32
2018-04-25T22:05:41.770Z,63.32
2018-04-25T22:08:10.036Z,63.72
2018-04-25T22:10:39.059Z,62.50
2018-04-25T22:13:07.327Z,64.98
2018-04-25T22:15:36.355Z,62.79
2018-04-25T22:18:04.597Z,62.95
2018-04-25T22:20:33.630Z,62.81
2018-04-25T22:23:01.884Z,62.15
2018-04-25T22:25:31.618Z,70.68
2018-04-25T22:27:59.875Z,75.18
2018-04-25T22:30:29.057Z,77.86
2018-04-25T22:32:57.312Z,80.77
2018-04-25T22:35:25.576Z,81.97
2018-04-25T22:37:53.837Z,83.75
2018-04-25T22:40:22.450Z,83.17
2018-04-25T22:42:50.707Z,83.04
2018-04-25T22:45:18.975Z,82.71
2018-04-25T22:47:47.232Z,80.68
2018-04-25T22:50:16.275Z,81.81
2018-04-25T22:52:44.527Z,84.61
2018-04-25T22:55:13.796Z,86.76
2018-04-25T22:57:42.052Z,83.78
2018-04-25T23:00:10.308Z,84.90
2018-04-25T23:02:38.571Z,85.92
2018-04-25T23:05:07.599Z,83.94
2018-04-25T23:07:35.855Z,83.32
2018-04-25T23:10:04.147Z,83.47
2018-04-25T23:12:32.404Z,82.97
2018-04-25T23:15:01.431Z,82.89
2018-04-25T23:17:29.682Z,84.98
2018-04-25T23:19:58.711Z,88.13
2018-04-25T23:22:27.326Z,88.67
2018-04-25T23:24:55.633Z,89.02
2018-04-25T23:27:24.102Z,89.46
2018-04-25T23:29:52.367Z,89.69
2018-04-25T23:32:20.627Z,89.08
2018-04-25T23:34:48.894Z,89.30
2018-04-25T23:37:17.169Z,89.23
2018-04-25T23:39:45.431Z,86.62
2018-04-25T23:42:14.446Z,87.66
2018-04-25T23:44:42.930Z,88.13
2018-04-25T23:47:11.941Z,86.71
2018-04-25T23:49:40.198Z,85.60
2018-04-25T23:52:09.250Z,85.24
2018-04-25T23:54:37.502Z,85.87
2018-04-25T23:57:05.753Z,86.34
2018-04-25T23:59:34.071Z,85.37
